»·PEaware :: N702CF L52-L88

N702CF :: L52-L88

FLIGHT INFORMATION

Flight Status: Arrived
Operator: Privately registered:
United States
More flights under this callsign
Pilot: Steven T. (7932)
Aircraft: CESSNA 206 STATIONAIR
(C206)
More flights by this aircraft type
Origin: L52 Oceano Co
United States
Destination: L88 New Cuyama
United States
More flights between these airports :: More routes between these airports
Route:
File this flight plan on PilotEdge
Remarks: CAT1
Altitude:
(Current/Filed)
5,500ft
Speed:
(Current/Filed)
145kts
Departed: 13-Jan-18 01:49 PM
Arrived: 13-Jan-18 02:13 PM
Distance/Time
Traveled:
1nm/0:24
Distance/Time
To Go:
Arrived

Flight Plot

Page will automatically refresh every two minutes.


Map Options




Map Legend


Flown Route
Filed Route
Departure Airport
Arrival Airport
Navaid (VOR, NDB)
Fix

Horizontal Profiles

Position Reports

Time Latitude Longitude Heading Altitude Ground
Speed
13-Jan-18 13:33 35.103570 -120.624861 31 18ft 0kts
13-Jan-18 13:34 35.103570 -120.624861 31 18ft 0kts
13-Jan-18 13:35 35.103570 -120.624861 31 18ft 0kts
13-Jan-18 13:36 35.103570 -120.624861 31 18ft 0kts
13-Jan-18 13:37 35.103570 -120.624861 31 18ft 0kts
13-Jan-18 13:38 35.103570 -120.624861 31 18ft 0kts
13-Jan-18 13:39 35.103570 -120.624860 31 18ft 0kts
13-Jan-18 13:40 35.103570 -120.624860 31 18ft 0kts
13-Jan-18 13:41 35.103570 -120.624860 31 18ft 0kts
13-Jan-18 13:42 35.103570 -120.624860 31 18ft 0kts
13-Jan-18 13:43 35.103570 -120.624860 31 18ft 0kts
13-Jan-18 13:44 35.103570 -120.624860 31 18ft 0kts
13-Jan-18 13:45 35.103570 -120.624860 31 18ft 0kts
13-Jan-18 13:46 35.103570 -120.624860 31 18ft 0kts
13-Jan-18 13:47 35.103570 -120.624860 31 18ft 0kts
13-Jan-18 13:48 35.103570 -120.624860 31 18ft 0kts
13-Jan-18 13:49 35.103701 -120.625057 243 18ft 4kts
13-Jan-18 13:50 35.102443 -120.624966 123 18ft 7kts
13-Jan-18 13:51 35.101212 -120.622667 123 18ft 9kts
13-Jan-18 13:52 35.099787 -120.619965 123 18ft 9kts
13-Jan-18 13:53 35.099569 -120.619526 78 18ft 0kts
13-Jan-18 13:54 35.100119 -120.619669 305 18ft 22kts
13-Jan-18 13:55 35.103608 -120.644456 216 1245ft 107kts
13-Jan-18 13:56 35.082623 -120.625727 123 2676ft 111kts
13-Jan-18 13:57 35.073368 -120.592088 104 3982ft 104kts
13-Jan-18 13:58 35.079209 -120.558632 65 5238ft 104kts
13-Jan-18 13:59 35.087014 -120.524965 87 6459ft 105kts
13-Jan-18 14:00 35.087728 -120.488731 88 7502ft 120kts
13-Jan-18 14:01 35.088188 -120.439918 89 7512ft 154kts
13-Jan-18 14:02 35.088701 -120.387027 89 7511ft 156kts
13-Jan-18 14:03 35.089246 -120.333855 89 7512ft 157kts
13-Jan-18 14:04 35.089780 -120.280479 89 7512ft 157kts
13-Jan-18 14:05 35.090271 -120.227229 89 7513ft 157kts
13-Jan-18 14:06 35.090748 -120.173832 89 7510ft 157kts
13-Jan-18 14:07 35.082294 -120.122312 111 7507ft 156kts
13-Jan-18 14:08 35.066457 -120.072903 111 7503ft 156kts
13-Jan-18 14:09 35.050625 -120.023633 111 7498ft 156kts
13-Jan-18 14:10 35.034015 -119.972027 111 6982ft 165kts
13-Jan-18 14:11 35.017051 -119.919165 111 6171ft 168kts
13-Jan-18 14:12 35.000262 -119.866551 111 5494ft 159kts
13-Jan-18 14:13 34.986991 -119.824717 111 4835ft 153kts
13-Jan-18 14:14 34.969778 -119.782666 122 3801ft 143kts
13-Jan-18 14:15 34.953390 -119.746704 117 3358ft 110kts
13-Jan-18 14:16 34.943380 -119.712988 102 2999ft 103kts
13-Jan-18 14:17 34.932669 -119.682824 124 2743ft 94kts
13-Jan-18 14:18 34.934683 -119.672416 291 2410ft 68kts
13-Jan-18 14:19 34.940899 -119.687910 296 2207ft 35kts
13-Jan-18 14:20 34.942409 -119.690632 19 2207ft 0kts
13-Jan-18 14:21 34.942409 -119.690632 19 2207ft 0kts
13-Jan-18 14:22 35.103570 -120.624860 31 18ft 0kts
13-Jan-18 14:23 35.103570 -120.624860 31 18ft 0kts
13-Jan-18 14:24 35.103570 -120.624860 31 18ft 0kts
13-Jan-18 14:25 35.103570 -120.624860 31 18ft 0kts
13-Jan-18 14:26 35.103570 -120.624860 31 18ft 0kts
13-Jan-18 14:27 35.103570 -120.624860 31 18ft 0kts
13-Jan-18 14:28 35.103570 -120.624860 31 18ft 0kts
13-Jan-18 14:29 35.103570 -120.624860 31 18ft 0kts
13-Jan-18 14:30 35.103384 -120.625418 214 18ft 5kts
13-Jan-18 14:31 35.101850 -120.623867 123 18ft 14kts
13-Jan-18 14:32 35.099583 -120.619527 86 18ft 0kts
13-Jan-18 14:33 35.099936 -120.619369 312 18ft 9kts
13-Jan-18 14:34 35.100968 -120.636071 180 1149ft 94kts

Navigation Log

Ident Type
Flight plan parsing failed, navigation log unavailable